createdAt,value
2022-09-18T00:00:57.322Z,100640.16
2022-09-18T00:03:24.976Z,100638.72
2022-09-18T00:05:52.538Z,100632.97
2022-09-18T00:08:21.571Z,100645.47
2022-09-18T00:10:49.135Z,100629.81
2022-09-18T00:13:16.674Z,100625.09
2022-09-18T00:15:44.226Z,100634.88
2022-09-18T00:18:11.793Z,100628.56
2022-09-18T00:20:39.321Z,100615.22
2022-09-18T00:23:06.862Z,100615.22
2022-09-18T00:25:35.721Z,100615.44
2022-09-18T00:28:03.687Z,100617.72
2022-09-18T00:30:31.197Z,100616.88
2022-09-18T00:32:58.730Z,100612.38
2022-09-18T00:35:26.386Z,100620.78
2022-09-18T00:37:54.012Z,100613.34
2022-09-18T00:40:21.598Z,100619.50
2022-09-18T00:42:50.502Z,100626.66
2022-09-18T00:45:18.132Z,100620.31
2022-09-18T00:47:48.635Z,100625.63
2022-09-18T00:50:19.805Z,100625.63
2022-09-18T00:52:51.283Z,100618.28
2022-09-18T00:55:23.924Z,100610.69
2022-09-18T00:57:57.133Z,100606.41
2022-09-18T01:00:25.054Z,100602.91
2022-09-18T01:02:53.014Z,100597.13
2022-09-18T01:05:30.590Z,100596.31
2022-09-18T01:08:14.570Z,100602.44
2022-09-18T01:10:56.636Z,100600.91
2022-09-18T01:13:35.829Z,100599.41
2022-09-18T01:16:09.999Z,100605.53
2022-09-18T01:18:44.143Z,100607.53
2022-09-18T01:21:14.069Z,100615.34
2022-09-18T01:24:06.982Z,100601.25
2022-09-18T01:26:48.717Z,100600.44
2022-09-18T01:29:26.474Z,100593.25
2022-09-18T01:31:58.646Z,100591.59
2022-09-18T01:34:31.509Z,100586.50
2022-09-18T01:37:04.419Z,100595.69
2022-09-18T01:39:38.642Z,100600.59
2022-09-18T01:42:09.310Z,100601.81
2022-09-18T01:44:41.859Z,100588.50
2022-09-18T01:47:14.559Z,100591.16
2022-09-18T01:49:46.555Z,100600.38
2022-09-18T01:52:20.122Z,100602.09
2022-09-18T01:54:51.641Z,100599.03
2022-09-18T01:57:23.757Z,100596.44
2022-09-18T01:59:57.290Z,100605.94
2022-09-18T02:02:32.426Z,100602.25
2022-09-18T02:05:03.557Z,100598.19
2022-09-18T02:07:38.654Z,100605.13
2022-09-18T02:10:08.223Z,100597.09
2022-09-18T02:12:39.723Z,100596.06
2022-09-18T02:15:12.767Z,100595.22
2022-09-18T02:17:44.993Z,100574.13
2022-09-18T02:20:19.526Z,100571.03
2022-09-18T02:22:50.538Z,100571.84
2022-09-18T02:25:24.670Z,100568.94
2022-09-18T02:27:54.854Z,100568.09
2022-09-18T02:30:24.785Z,100565.88
2022-09-18T02:32:55.511Z,100570.94
2022-09-18T02:35:26.441Z,100579.72
2022-09-18T02:37:59.525Z,100569.88
2022-09-18T02:40:38.933Z,100573.31
2022-09-18T02:43:19.502Z,100575.56
2022-09-18T02:45:57.918Z,100578.41
2022-09-18T02:48:57.066Z,100582.34
2022-09-18T02:51:32.689Z,100586.63
2022-09-18T02:54:05.559Z,100592.56
2022-09-18T02:56:40.549Z,100590.28
2022-09-18T02:59:13.502Z,100591.84
2022-09-18T03:01:46.161Z,100593.50
2022-09-18T03:04:16.374Z,100588.94
2022-09-18T03:06:43.899Z,100586.63
2022-09-18T03:09:11.467Z,100579.47
2022-09-18T03:11:39.041Z,100592.00
2022-09-18T03:14:06.569Z,100590.84
2022-09-18T03:16:34.174Z,100578.97
2022-09-18T03:19:03.237Z,100585.13
2022-09-18T03:21:31.093Z,100590.06
2022-09-18T03:23:58.936Z,100582.47
2022-09-18T03:26:26.469Z,100583.13
2022-09-18T03:28:53.997Z,100580.47
2022-09-18T03:31:21.643Z,100583.91
2022-09-18T03:33:49.202Z,100573.00
2022-09-18T03:36:18.299Z,100577.06
2022-09-18T03:38:45.831Z,100586.06
2022-09-18T03:41:13.367Z,100580.31
2022-09-18T03:43:40.882Z,100575.38
2022-09-18T03:46:08.517Z,100579.06
2022-09-18T03:48:36.146Z,100580.06
2022-09-18T03:51:03.741Z,100583.75
2022-09-18T03:53:32.613Z,100585.00
2022-09-18T03:56:00.154Z,100581.53
2022-09-18T03:58:27.665Z,100589.34
2022-09-18T04:00:55.465Z,100586.66
2022-09-18T04:03:23.070Z,100584.63
2022-09-18T04:05:51.080Z,100590.84
2022-09-18T04:08:19.098Z,100583.22
2022-09-18T04:10:49.365Z,100579.97
2022-09-18T04:13:17.101Z,100592.72
2022-09-18T04:15:45.220Z,100580.06
2022-09-18T04:18:12.851Z,100581.13
2022-09-18T04:20:40.417Z,100588.09
2022-09-18T04:23:07.962Z,100595.44
2022-09-18T04:25:35.469Z,100600.97
2022-09-18T04:28:04.478Z,100581.28
2022-09-18T04:30:31.992Z,100575.13
2022-09-18T04:32:59.540Z,100563.22
2022-09-18T04:35:28.049Z,100558.31
2022-09-18T04:37:55.582Z,100569.59
2022-09-18T04:40:23.188Z,100566.75
2022-09-18T04:42:50.769Z,100564.47
2022-09-18T04:45:19.722Z,100557.06
2022-09-18T04:47:48.498Z,100556.06
2022-09-18T04:50:16.287Z,100556.22
2022-09-18T04:52:44.461Z,100558.72
2022-09-18T04:55:12.018Z,100569.75
2022-09-18T04:57:39.565Z,100574.69
2022-09-18T05:00:09.148Z,100563.44
2022-09-18T05:02:38.754Z,100565.44
2022-09-18T05:05:07.050Z,100578.19
2022-09-18T05:07:34.874Z,100579.78
2022-09-18T05:10:02.521Z,100578.91
2022-09-18T05:12:30.066Z,100578.69
2022-09-18T05:14:57.601Z,100570.97
2022-09-18T05:17:25.201Z,100572.22
2022-09-18T05:19:54.094Z,100577.78
2022-09-18T05:22:21.658Z,100569.59
2022-09-18T05:24:49.186Z,100556.88
2022-09-18T05:27:16.906Z,100554.00
2022-09-18T05:29:44.453Z,100543.78
2022-09-18T05:32:11.977Z,100554.06
2022-09-18T05:34:39.486Z,100554.44
2022-09-18T05:37:08.926Z,100551.56
2022-09-18T05:39:36.437Z,100555.44
2022-09-18T05:42:04.446Z,100559.97
2022-09-18T05:44:31.980Z,100562.88
2022-09-18T05:46:59.591Z,100559.19
2022-09-18T05:49:27.486Z,100552.66
2022-09-18T05:51:55.365Z,100550.28
2022-09-18T05:54:24.255Z,100549.72
2022-09-18T05:56:51.785Z,100552.56
2022-09-18T05:59:19.306Z,100548.91
2022-09-18T06:01:47.593Z,100552.63
2022-09-18T06:04:15.318Z,100547.78
2022-09-18T06:06:42.906Z,100545.44
2022-09-18T06:09:10.438Z,100548.28
2022-09-18T06:11:39.345Z,100548.38
2022-09-18T06:14:06.861Z,100541.75
2022-09-18T06:16:37.436Z,100535.81
2022-09-18T06:19:07.537Z,100530.88
2022-09-18T06:21:35.153Z,100544.03
2022-09-18T06:24:02.994Z,100532.50
2022-09-18T06:26:31.394Z,100533.38
2022-09-18T06:29:00.319Z,100537.56
2022-09-18T06:31:28.359Z,100541.94
2022-09-18T06:33:56.107Z,100545.50
2022-09-18T06:36:23.645Z,100547.41
2022-09-18T06:38:51.566Z,100549.91
2022-09-18T06:41:19.098Z,100541.38
2022-09-18T06:43:50.100Z,100546.31
2022-09-18T06:46:19.019Z,100552.59
2022-09-18T06:48:49.282Z,100554.28
2022-09-18T06:51:16.839Z,100551.69
2022-09-18T06:53:45.081Z,100552.72
2022-09-18T06:56:12.676Z,100568.31
2022-09-18T06:58:40.214Z,100559.13
2022-09-18T07:01:07.786Z,100551.66
2022-09-18T07:03:36.702Z,100557.22
2022-09-18T07:06:04.533Z,100546.59
2022-09-18T07:08:32.195Z,100564.34
2022-09-18T07:11:01.996Z,100560.53
2022-09-18T07:13:31.266Z,100547.50
2022-09-18T07:15:59.366Z,100548.72
2022-09-18T07:18:27.309Z,100561.63
2022-09-18T07:20:56.230Z,100558.16
2022-09-18T07:23:24.221Z,100570.69
2022-09-18T07:25:51.757Z,100558.56
2022-09-18T07:28:19.341Z,100560.84
2022-09-18T07:30:47.414Z,100567.63
2022-09-18T07:33:14.954Z,100562.91
2022-09-18T07:35:42.474Z,100557.16
2022-09-18T07:38:12.019Z,100559.38
2022-09-18T07:40:41.206Z,100561.66
2022-09-18T07:43:10.687Z,100567.50
2022-09-18T07:45:39.089Z,100571.13
2022-09-18T07:48:08.461Z,100567.66
2022-09-18T07:50:36.033Z,100568.91
2022-09-18T07:53:05.447Z,100563.59
2022-09-18T07:55:36.152Z,100566.63
2022-09-18T07:58:06.078Z,100566.78
2022-09-18T08:00:37.037Z,100576.97
2022-09-18T08:03:06.080Z,100571.81
2022-09-18T08:05:34.306Z,100586.94
2022-09-18T08:08:05.595Z,100568.63
2022-09-18T08:10:35.265Z,100566.78
2022-09-18T08:13:03.681Z,100552.41
2022-09-18T08:15:31.795Z,100562.66
2022-09-18T08:17:59.407Z,100565.63
2022-09-18T08:20:26.989Z,100544.69
2022-09-18T08:22:54.641Z,100541.78
2022-09-18T08:25:23.183Z,100544.44
2022-09-18T08:27:52.067Z,100532.81
2022-09-18T08:30:19.862Z,100540.03
2022-09-18T08:32:47.393Z,100537.38
2022-09-18T08:35:15.334Z,100556.09
2022-09-18T08:37:48.671Z,100561.84
2022-09-18T08:40:19.625Z,100571.31
2022-09-18T08:43:02.024Z,100577.06
2022-09-18T08:45:43.017Z,100568.25
2022-09-18T08:48:16.580Z,100569.47
2022-09-18T08:50:50.930Z,100562.88
2022-09-18T08:53:24.411Z,100553.22
2022-09-18T08:55:55.030Z,100553.25
2022-09-18T08:58:31.779Z,100558.56
2022-09-18T09:01:04.099Z,100553.84
2022-09-18T09:03:43.062Z,100544.38
2022-09-18T09:06:27.155Z,100549.72
2022-09-18T09:09:22.674Z,100551.81
2022-09-18T09:11:58.615Z,100554.66
2022-09-18T09:14:56.601Z,100549.13
2022-09-18T09:17:38.776Z,100551.00
2022-09-18T09:20:19.005Z,100536.63
2022-09-18T09:22:57.194Z,100537.00
2022-09-18T09:25:31.310Z,100522.84
2022-09-18T09:28:14.497Z,100515.47
2022-09-18T09:30:48.044Z,100508.91
2022-09-18T09:33:21.734Z,100500.47
2022-09-18T09:35:53.294Z,100496.59
2022-09-18T09:38:37.194Z,100488.38
2022-09-18T09:41:14.434Z,100500.25
2022-09-18T09:43:45.917Z,100500.81
2022-09-18T09:46:24.393Z,100508.59
2022-09-18T09:48:58.347Z,100512.56
2022-09-18T09:51:32.078Z,100513.66
2022-09-18T09:54:01.439Z,100511.94
2022-09-18T09:56:38.265Z,100517.81
2022-09-18T09:59:18.326Z,100501.47
2022-09-18T10:01:57.021Z,100507.31
2022-09-18T10:04:35.103Z,100502.97
2022-09-18T10:07:11.287Z,100494.63
2022-09-18T10:09:46.657Z,100495.75
2022-09-18T10:12:22.098Z,100497.25
2022-09-18T10:14:53.340Z,100501.25
2022-09-18T10:17:23.203Z,100508.72
2022-09-18T10:19:50.785Z,100495.97
2022-09-18T10:22:23.411Z,100510.50
2022-09-18T10:24:56.874Z,100500.38
2022-09-18T10:27:24.586Z,100502.81
2022-09-18T10:29:54.218Z,100512.81
2022-09-18T10:32:38.902Z,100523.25
2022-09-18T10:35:44.409Z,100532.69
2022-09-18T10:38:33.402Z,100521.97
2022-09-18T10:41:33.792Z,100519.28
2022-09-18T10:44:07.060Z,100527.84
2022-09-18T10:46:37.122Z,100512.41
2022-09-18T10:49:20.497Z,100520.19
2022-09-18T10:51:48.096Z,100514.22
2022-09-18T10:54:17.946Z,100522.09
2022-09-18T10:56:46.006Z,100525.59
2022-09-18T10:59:35.075Z,100523.81
2022-09-18T11:02:05.145Z,100519.66
2022-09-18T11:04:34.885Z,100525.78
2022-09-18T11:07:07.338Z,100520.16
2022-09-18T11:09:39.075Z,100529.94
2022-09-18T11:12:15.560Z,100522.47
2022-09-18T11:14:46.855Z,100511.66
2022-09-18T11:17:24.244Z,100511.84
2022-09-18T11:19:55.303Z,100515.53
2022-09-18T11:22:35.775Z,100501.84
2022-09-18T11:25:24.971Z,100503.25
2022-09-18T11:27:54.216Z,100504.13
2022-09-18T11:30:24.647Z,100510.16
2022-09-18T11:32:57.886Z,100500.72
2022-09-18T11:35:29.771Z,100491.47
2022-09-18T11:38:00.607Z,100504.25
2022-09-18T11:40:32.521Z,100501.56
2022-09-18T11:43:05.424Z,100484.28
2022-09-18T11:45:45.843Z,100491.44
2022-09-18T11:48:23.294Z,100485.03
2022-09-18T11:50:56.141Z,100483.53
2022-09-18T11:53:26.290Z,100482.91
2022-09-18T11:56:00.805Z,100477.56
2022-09-18T11:58:34.269Z,100477.13
2022-09-18T12:01:13.596Z,100469.78
2022-09-18T12:03:47.356Z,100468.53
2022-09-18T12:06:26.413Z,100463.25
2022-09-18T12:08:58.061Z,100465.84
2022-09-18T12:11:32.817Z,100455.50
2022-09-18T12:14:12.589Z,100456.16
2022-09-18T12:16:46.123Z,100442.50
2022-09-18T12:19:20.702Z,100445.88
2022-09-18T12:21:55.786Z,100443.66
2022-09-18T12:24:24.097Z,100450.19
2022-09-18T12:27:01.054Z,100454.06
2022-09-18T12:29:50.264Z,100450.88
2022-09-18T12:32:32.514Z,100442.00
2022-09-18T12:35:08.393Z,100442.94
2022-09-18T12:37:48.053Z,100436.28
2022-09-18T12:40:37.750Z,100438.03
2022-09-18T12:43:22.686Z,100445.63
2022-09-18T12:46:11.621Z,100436.66
2022-09-18T12:49:01.423Z,100441.28
2022-09-18T12:51:36.647Z,100434.31
2022-09-18T12:54:27.339Z,100446.41
2022-09-18T12:57:06.683Z,100431.72
2022-09-18T12:59:46.405Z,100436.56
2022-09-18T13:02:26.519Z,100438.41
2022-09-18T13:04:59.213Z,100445.53
2022-09-18T13:07:33.082Z,100441.53
2022-09-18T13:10:07.123Z,100446.22
2022-09-18T13:12:40.627Z,100451.81
2022-09-18T13:15:15.846Z,100446.91
2022-09-18T13:17:48.834Z,100448.88
2022-09-18T13:20:23.977Z,100450.13
2022-09-18T13:22:54.031Z,100445.16
2022-09-18T13:25:28.393Z,100443.00
2022-09-18T13:27:58.183Z,100439.97
2022-09-18T13:30:28.862Z,100433.97
2022-09-18T13:32:57.932Z,100437.00
2022-09-18T13:35:28.847Z,100437.78
2022-09-18T13:38:16.515Z,100430.66
2022-09-18T13:40:48.012Z,100443.00
2022-09-18T13:43:31.526Z,100444.84
2022-09-18T13:46:05.927Z,100441.81
2022-09-18T13:48:41.916Z,100442.75
2022-09-18T13:51:12.161Z,100447.28
2022-09-18T13:53:41.705Z,100438.59
2022-09-18T13:56:12.282Z,100435.69
2022-09-18T13:58:55.888Z,100440.44
2022-09-18T14:01:56.938Z,100437.69
2022-09-18T14:04:59.644Z,100440.94
2022-09-18T14:08:04.140Z,100440.38
2022-09-18T14:10:36.306Z,100439.09
2022-09-18T14:13:34.244Z,100442.63
2022-09-18T14:16:06.963Z,100449.06
2022-09-18T14:18:38.481Z,100456.06
2022-09-18T14:21:22.298Z,100455.00
2022-09-18T14:24:32.013Z,100462.03
2022-09-18T14:27:02.452Z,100453.66
2022-09-18T14:29:34.530Z,100460.25
2022-09-18T14:32:03.181Z,100452.78
2022-09-18T14:34:37.905Z,100457.00
2022-09-18T14:37:24.323Z,100457.81
2022-09-18T14:39:53.926Z,100442.44
2022-09-18T14:42:32.476Z,100452.69
2022-09-18T14:45:21.165Z,100450.16
2022-09-18T14:47:49.946Z,100453.88
2022-09-18T14:50:30.862Z,100449.38
2022-09-18T14:53:00.458Z,100443.19
2022-09-18T14:55:33.792Z,100446.03
2022-09-18T14:58:06.680Z,100445.28
2022-09-18T15:00:38.002Z,100447.66
2022-09-18T15:03:08.674Z,100445.03
2022-09-18T15:05:37.154Z,100442.75
2022-09-18T15:08:08.189Z,100439.84
2022-09-18T15:10:40.085Z,100450.09
2022-09-18T15:13:10.305Z,100450.59
2022-09-18T15:15:40.417Z,100448.06
2022-09-18T15:18:20.330Z,100450.84
2022-09-18T15:20:50.529Z,100445.44
2022-09-18T15:23:20.191Z,100445.34
2022-09-18T15:25:52.293Z,100439.03
2022-09-18T15:28:21.421Z,100439.19
2022-09-18T15:30:52.158Z,100441.56
2022-09-18T15:33:25.413Z,100445.88
2022-09-18T15:35:54.201Z,100443.56
2022-09-18T15:38:26.588Z,100436.88
2022-09-18T15:40:54.689Z,100455.38
2022-09-18T15:43:43.406Z,100448.44
2022-09-18T15:46:24.446Z,100459.38
2022-09-18T15:48:52.336Z,100454.66
2022-09-18T15:51:25.071Z,100465.00
2022-09-18T15:54:09.517Z,100467.03
2022-09-18T15:56:39.904Z,100466.97
2022-09-18T15:59:16.953Z,100470.88
2022-09-18T16:01:48.804Z,100473.94
2022-09-18T16:04:20.161Z,100478.91
2022-09-18T16:07:19.021Z,100477.03
2022-09-18T16:09:48.045Z,100474.38
2022-09-18T16:12:43.259Z,100479.91
2022-09-18T16:15:20.546Z,100486.94
2022-09-18T16:17:58.934Z,100479.94
2022-09-18T16:20:41.499Z,100483.81
2022-09-18T16:23:24.060Z,100488.59
2022-09-18T16:26:07.950Z,100483.69
2022-09-18T16:28:37.618Z,100490.28
2022-09-18T16:31:05.413Z,100485.53
2022-09-18T16:33:35.354Z,100485.38
2022-09-18T16:36:05.698Z,100497.09
2022-09-18T16:38:33.418Z,100502.69
2022-09-18T16:41:01.070Z,100502.75
2022-09-18T16:43:29.670Z,100512.47
2022-09-18T16:45:57.290Z,100513.06
2022-09-18T16:48:25.885Z,100518.63
2022-09-18T16:50:54.806Z,100525.41
2022-09-18T16:53:22.347Z,100540.00
2022-09-18T16:55:53.013Z,100539.25
2022-09-18T16:58:21.484Z,100545.75
2022-09-18T17:00:49.576Z,100552.03
2022-09-18T17:03:18.206Z,100557.41
2022-09-18T17:05:45.860Z,100554.59
2022-09-18T17:08:14.750Z,100546.19
2022-09-18T17:10:45.171Z,100555.44
2022-09-18T17:13:13.531Z,100554.84
2022-09-18T17:15:41.090Z,100559.59
2022-09-18T17:18:08.723Z,100556.31
2022-09-18T17:20:36.274Z,100551.81
2022-09-18T17:23:03.905Z,100568.88
2022-09-18T17:25:32.825Z,100569.25
2022-09-18T17:28:00.383Z,100575.41
2022-09-18T17:30:27.960Z,100570.69
2022-09-18T17:32:55.597Z,100584.44
2022-09-18T17:35:23.154Z,100590.00
2022-09-18T17:37:51.619Z,100589.38
2022-09-18T17:40:20.382Z,100599.03
2022-09-18T17:42:49.323Z,100610.97
2022-09-18T17:45:17.012Z,100603.34
2022-09-18T17:47:44.561Z,100613.84
2022-09-18T17:50:12.211Z,100616.91
2022-09-18T17:52:40.008Z,100625.13
2022-09-18T17:55:09.183Z,100624.50
2022-09-18T17:57:38.085Z,100636.00
2022-09-18T18:00:09.536Z,100634.34
2022-09-18T18:02:37.078Z,100631.09
2022-09-18T18:05:05.020Z,100640.13
2022-09-18T18:07:32.619Z,100646.09
2022-09-18T18:10:00.175Z,100648.94
2022-09-18T18:12:27.702Z,100650.34
2022-09-18T18:14:55.230Z,100658.78
2022-09-18T18:17:24.541Z,100664.91
2022-09-18T18:19:52.081Z,100668.81
2022-09-18T18:22:19.701Z,100669.03
2022-09-18T18:24:49.550Z,100675.19
2022-09-18T18:27:18.873Z,100679.47
2022-09-18T18:29:47.417Z,100688.50
2022-09-18T18:32:14.980Z,100697.13
2022-09-18T18:34:43.842Z,100687.25
2022-09-18T18:37:11.385Z,100697.13
2022-09-18T18:39:38.901Z,100690.94
2022-09-18T18:42:07.017Z,100697.91
2022-09-18T18:44:36.393Z,100708.41
2022-09-18T18:47:04.728Z,100707.38
2022-09-18T18:49:32.828Z,100719.69
2022-09-18T18:52:04.065Z,100729.53
2022-09-18T18:54:32.113Z,100717.06
2022-09-18T18:56:59.683Z,100729.38
2022-09-18T18:59:27.212Z,100731.22
2022-09-18T19:01:56.321Z,100752.56
2022-09-18T19:04:24.633Z,100753.19
2022-09-18T19:06:53.883Z,100762.03
2022-09-18T19:09:25.910Z,100755.03
2022-09-18T19:11:54.161Z,100760.59
2022-09-18T19:14:23.780Z,100764.47
2022-09-18T19:16:52.253Z,100766.53
2022-09-18T19:19:21.873Z,100766.34
2022-09-18T19:21:49.405Z,100768.16
2022-09-18T19:24:18.477Z,100771.44
2022-09-18T19:26:48.884Z,100784.53
2022-09-18T19:29:19.017Z,100791.03
2022-09-18T19:31:47.959Z,100797.16
2022-09-18T19:34:18.180Z,100799.00
2022-09-18T19:36:47.056Z,100812.09
2022-09-18T19:39:15.099Z,100813.53
2022-09-18T19:41:46.512Z,100826.63
2022-09-18T19:44:31.165Z,100845.06
2022-09-18T19:47:01.648Z,100840.03
2022-09-18T19:49:33.070Z,100866.84
2022-09-18T19:52:01.976Z,100852.56
2022-09-18T19:54:30.169Z,100863.97
2022-09-18T19:56:58.928Z,100860.75
2022-09-18T19:59:27.821Z,100882.00
2022-09-18T20:01:55.878Z,100880.38
2022-09-18T20:04:23.457Z,100888.31
2022-09-18T20:06:50.989Z,100885.56
2022-09-18T20:09:18.557Z,100891.66
2022-09-18T20:11:48.291Z,100886.06
2022-09-18T20:14:16.245Z,100883.78
2022-09-18T20:16:45.166Z,100884.94
2022-09-18T20:19:12.746Z,100884.53
2022-09-18T20:21:40.445Z,100882.50
2022-09-18T20:24:08.074Z,100889.00
2022-09-18T20:26:35.585Z,100889.56
2022-09-18T20:29:03.200Z,100879.09
2022-09-18T20:31:30.804Z,100881.03
2022-09-18T20:34:00.920Z,100875.88
2022-09-18T20:36:29.355Z,100871.22
2022-09-18T20:38:57.912Z,100851.75
2022-09-18T20:41:29.819Z,100855.41
2022-09-18T20:43:58.557Z,100864.41
2022-09-18T20:46:27.594Z,100866.63
2022-09-18T20:48:55.886Z,100868.00
2022-09-18T20:51:26.565Z,100875.97
2022-09-18T20:53:56.123Z,100879.47
2022-09-18T20:56:24.978Z,100885.16
2022-09-18T20:58:53.081Z,100882.41
2022-09-18T21:01:23.078Z,100891.59
2022-09-18T21:03:56.433Z,100902.25
2022-09-18T21:06:27.409Z,100899.94
2022-09-18T21:08:56.196Z,100908.75
2022-09-18T21:11:25.417Z,100906.28
2022-09-18T21:13:54.602Z,100908.09
2022-09-18T21:16:23.166Z,100912.59
2022-09-18T21:18:53.441Z,100912.44
2022-09-18T21:21:21.269Z,100923.06
2022-09-18T21:23:58.437Z,100915.66
2022-09-18T21:26:27.962Z,100924.06
2022-09-18T21:28:57.581Z,100929.22
2022-09-18T21:31:25.807Z,100928.38
2022-09-18T21:33:54.108Z,100918.38
2022-09-18T21:36:22.594Z,100918.38
2022-09-18T21:38:52.179Z,100927.03
2022-09-18T21:41:21.733Z,100935.44
2022-09-18T21:43:51.010Z,100932.63
2022-09-18T21:46:20.691Z,100935.28
2022-09-18T21:48:52.828Z,100936.94
2022-09-18T21:51:20.589Z,100942.53
2022-09-18T21:53:48.600Z,100942.06
2022-09-18T21:56:20.676Z,100942.69
2022-09-18T21:58:48.917Z,100950.88
2022-09-18T22:01:19.152Z,100942.53
2022-09-18T22:03:52.172Z,100946.84
2022-09-18T22:06:20.978Z,100948.84
2022-09-18T22:08:50.343Z,100952.81
2022-09-18T22:11:20.251Z,100957.13
2022-09-18T22:13:47.833Z,100958.97
2022-09-18T22:16:15.412Z,100963.25
2022-09-18T22:18:43.278Z,100957.13
2022-09-18T22:21:20.326Z,100967.31
2022-09-18T22:23:52.791Z,100965.84
2022-09-18T22:26:22.514Z,100967.84
2022-09-18T22:28:50.973Z,100957.88
2022-09-18T22:31:19.199Z,100971.53
2022-09-18T22:33:47.604Z,100975.47
2022-09-18T22:36:15.752Z,100978.13
2022-09-18T22:38:43.500Z,100989.13
2022-09-18T22:41:11.346Z,100986.84
2022-09-18T22:43:40.565Z,100988.31
2022-09-18T22:46:10.617Z,100993.81
2022-09-18T22:48:39.008Z,100985.38
2022-09-18T22:51:11.368Z,100988.88
2022-09-18T22:53:44.054Z,100995.19
2022-09-18T22:56:14.502Z,100993.91
2022-09-18T22:58:43.906Z,100995.91
2022-09-18T23:01:13.893Z,100993.44
2022-09-18T23:03:42.128Z,100994.66
2022-09-18T23:06:10.665Z,100992.97
2022-09-18T23:08:39.279Z,101006.28
2022-09-18T23:11:09.509Z,100995.16
2022-09-18T23:13:37.645Z,101004.97
2022-09-18T23:16:09.545Z,101005.34
2022-09-18T23:18:38.144Z,101003.03
2022-09-18T23:21:07.841Z,101004.72
2022-09-18T23:23:37.572Z,101009.38
2022-09-18T23:26:08.454Z,101007.38
2022-09-18T23:28:37.496Z,101004.06
2022-09-18T23:31:09.435Z,101005.06
2022-09-18T23:33:37.417Z,101001.56
2022-09-18T23:36:09.842Z,100997.28
2022-09-18T23:38:38.257Z,101004.22
2022-09-18T23:41:08.458Z,100999.94
2022-09-18T23:43:36.764Z,101001.78
2022-09-18T23:46:05.818Z,101007.09
2022-09-18T23:48:34.725Z,101005.06
2022-09-18T23:51:03.362Z,101005.69
2022-09-18T23:53:36.215Z,101003.03
2022-09-18T23:56:07.222Z,101001.41
2022-09-18T23:58:35.234Z,101006.25
